createdAt,value
2018-11-05T10:50:15.088Z,74.50
2018-11-05T10:52:47.428Z,80.50
2018-11-05T10:55:17.941Z,82.27
2018-11-05T10:57:49.152Z,84.23
2018-11-05T11:00:27.306Z,84.30
2018-11-05T11:03:02.991Z,87.23
2018-11-05T11:05:33.379Z,81.80
2018-11-05T11:08:03.759Z,90.20
2018-11-05T11:10:34.432Z,89.60
2018-11-05T11:13:04.579Z,87.83
2018-11-05T11:15:35.620Z,86.63
2018-11-05T11:18:06.546Z,87.90
2018-11-05T11:20:36.708Z,87.47
2018-11-05T11:23:07.547Z,87.40
2018-11-05T11:25:38.046Z,86.53
2018-11-05T11:28:08.570Z,87.37
2018-11-05T11:30:39.788Z,90.87
2018-11-05T11:33:10.537Z,84.23
2018-11-05T11:35:40.638Z,88.23
2018-11-05T11:38:10.835Z,87.10
2018-11-05T11:40:41.697Z,82.50
2018-11-05T11:43:11.825Z,84.70
2018-11-05T11:45:42.112Z,84.80
2018-11-05T11:48:12.181Z,84.43
2018-11-05T11:50:42.553Z,88.43
2018-11-05T11:53:12.661Z,83.17
2018-11-05T11:55:42.664Z,85.07
2018-11-05T11:58:13.515Z,82.97
2018-11-05T12:00:43.667Z,80.43
2018-11-05T12:03:13.835Z,86.10
2018-11-05T12:05:44.476Z,82.67
2018-11-05T12:08:14.976Z,86.37
2018-11-05T12:10:45.148Z,83.00
2018-11-05T12:13:16.099Z,80.53
2018-11-05T12:15:46.493Z,76.13
2018-11-05T12:18:17.460Z,78.23
2018-11-05T12:20:47.563Z,80.47
2018-11-05T12:23:17.725Z,76.27
2018-11-05T12:25:47.905Z,78.40
2018-11-05T12:28:17.866Z,77.70
2018-11-05T12:30:48.422Z,86.00
2018-11-05T12:33:18.586Z,79.37
2018-11-05T12:35:48.965Z,78.57
2018-11-05T12:38:19.178Z,74.17
2018-11-05T12:40:49.724Z,76.30
2018-11-05T12:43:21.164Z,74.53
2018-11-05T12:45:52.102Z,78.97
2018-11-05T12:48:22.074Z,77.20
2018-11-05T12:50:52.053Z,76.57
2018-11-05T12:53:22.471Z,80.47
2018-11-05T12:55:52.530Z,79.90
2018-11-05T12:58:22.804Z,76.33
2018-11-05T13:00:53.025Z,74.87
2018-11-05T13:03:23.272Z,74.53
2018-11-05T13:05:53.524Z,77.23
2018-11-05T13:08:24.851Z,78.13
2018-11-05T13:10:55.080Z,74.57
2018-11-05T13:13:25.532Z,78.27
2018-11-05T13:15:55.773Z,78.40
2018-11-05T13:18:26.050Z,80.90
2018-11-05T13:20:56.375Z,81.37
2018-11-05T13:23:31.846Z,82.60
2018-11-05T13:26:02.249Z,81.20
2018-11-05T13:28:33.243Z,76.97
2018-11-05T13:31:03.737Z,79.70
2018-11-05T13:33:33.897Z,81.30
2018-11-05T13:36:04.337Z,75.53
2018-11-05T13:38:34.624Z,78.77
2018-11-05T13:41:05.121Z,77.57
2018-11-05T13:43:36.659Z,76.83
2018-11-05T13:46:07.130Z,79.93
2018-11-05T13:48:37.562Z,76.60
2018-11-05T13:51:07.802Z,76.47
2018-11-05T13:53:37.837Z,74.87
2018-11-05T13:56:08.568Z,73.37
2018-11-05T13:58:39.228Z,78.43
2018-11-05T14:01:09.634Z,76.70
2018-11-05T14:03:39.761Z,79.10
2018-11-05T14:06:10.405Z,78.77
2018-11-05T14:08:41.280Z,73.67
2018-11-05T14:11:11.475Z,75.10
2018-11-05T14:13:41.677Z,76.10
2018-11-05T14:16:11.907Z,78.13
2018-11-05T14:18:42.268Z,77.30
2018-11-05T14:21:12.453Z,76.93
2018-11-05T14:23:42.578Z,79.00
2018-11-05T14:26:13.115Z,75.80
2018-11-05T14:28:43.265Z,77.30
2018-11-05T14:31:13.577Z,77.90
2018-11-05T14:33:43.434Z,76.30
2018-11-05T14:36:13.350Z,74.87
2018-11-05T14:38:43.775Z,74.67
2018-11-05T14:41:13.830Z,83.20
2018-11-05T14:43:44.051Z,76.57
2018-11-05T14:46:14.813Z,77.13
2018-11-05T14:48:45.571Z,73.27
2018-11-05T14:51:17.521Z,77.60
2018-11-05T14:53:47.754Z,72.17
2018-11-05T14:56:17.755Z,72.17
2018-11-05T14:58:49.556Z,73.60
2018-11-05T15:01:21.486Z,77.30
2018-11-05T15:03:53.192Z,70.17
2018-11-05T15:06:25.406Z,70.73
2018-11-05T15:08:57.457Z,74.07
2018-11-05T15:11:29.218Z,75.17
2018-11-05T15:14:01.088Z,76.30
2018-11-05T15:16:33.695Z,73.77
2018-11-05T15:19:05.983Z,77.70
2018-11-05T15:21:37.730Z,79.63
2018-11-05T15:24:09.484Z,80.00
2018-11-05T15:26:41.805Z,80.10
2018-11-05T15:29:13.675Z,80.37
2018-11-05T15:31:45.768Z,78.47
2018-11-05T15:34:17.689Z,73.50
2018-11-05T15:36:51.474Z,77.83
2018-11-05T15:39:24.602Z,77.30
2018-11-05T15:41:56.474Z,79.10
2018-11-05T15:44:28.528Z,78.73
2018-11-05T15:47:00.908Z,79.63
2018-11-05T15:49:32.636Z,84.67
2018-11-05T15:52:05.772Z,79.37
2018-11-05T15:54:37.687Z,76.27
2018-11-05T15:57:10.119Z,77.73
2018-11-05T15:59:41.733Z,76.83
2018-11-05T16:02:14.548Z,77.50
2018-11-05T16:04:46.773Z,73.80
2018-11-05T16:07:19.952Z,77.97
2018-11-05T16:09:53.204Z,75.90
2018-11-05T16:12:24.632Z,78.43
2018-11-05T16:14:57.454Z,75.63
2018-11-05T16:17:29.754Z,77.77
2018-11-05T16:20:01.365Z,78.27
2018-11-05T16:22:33.623Z,79.17
2018-11-05T16:25:05.874Z,80.20
2018-11-05T16:27:37.717Z,77.10
2018-11-05T16:30:13.728Z,75.87
2018-11-05T16:32:46.969Z,80.83
2018-11-05T16:35:19.403Z,80.30
2018-11-05T16:37:52.452Z,76.93
2018-11-05T16:40:24.542Z,73.73
2018-11-05T16:42:56.583Z,77.17
2018-11-05T16:45:26.879Z,77.17
2018-11-05T16:47:57.531Z,82.13
2018-11-05T16:50:28.972Z,77.10
2018-11-05T16:53:00.415Z,78.53
2018-11-05T16:55:30.498Z,77.77
2018-11-05T16:58:00.964Z,78.90
2018-11-05T17:00:31.275Z,83.73
2018-11-05T17:03:01.627Z,83.67
2018-11-05T17:05:31.690Z,80.23
2018-11-05T17:08:02.040Z,78.77
2018-11-05T17:10:32.309Z,77.67
2018-11-05T17:13:03.370Z,81.30
2018-11-05T17:15:33.947Z,78.20
2018-11-05T17:18:04.568Z,77.30
2018-11-05T17:20:35.028Z,78.03
2018-11-05T17:23:05.093Z,77.03
2018-11-05T17:25:35.003Z,81.00
2018-11-05T17:28:05.300Z,76.63
2018-11-05T17:30:35.595Z,83.07
2018-11-05T17:33:06.131Z,84.03
2018-11-05T17:35:36.272Z,83.23
2018-11-05T17:38:07.015Z,79.83
2018-11-05T17:40:37.332Z,80.97
2018-11-05T17:43:07.480Z,83.53
2018-11-05T17:45:37.551Z,85.90
2018-11-05T17:48:07.632Z,92.97
2018-11-05T17:50:37.930Z,87.10
2018-11-05T17:53:08.222Z,81.97
2018-11-05T17:55:39.047Z,81.67
2018-11-05T17:58:10.085Z,79.30
2018-11-05T18:00:40.585Z,84.60
2018-11-05T18:03:10.552Z,82.97
2018-11-05T18:05:41.217Z,81.03
2018-11-05T18:08:11.680Z,79.87
2018-11-05T18:10:42.076Z,81.73
2018-11-05T18:13:12.459Z,79.77
2018-11-05T18:15:43.736Z,82.33
2018-11-05T18:18:14.525Z,79.20
2018-11-05T18:20:44.696Z,78.50
2018-11-05T18:23:15.221Z,86.60
2018-11-05T18:25:45.375Z,83.27
2018-11-05T18:28:15.921Z,79.80
2018-11-05T18:30:46.018Z,79.27
2018-11-05T18:33:16.034Z,85.73
2018-11-05T18:35:46.487Z,85.53
2018-11-05T18:38:16.738Z,86.47
2018-11-05T18:40:47.012Z,89.60
2018-11-05T18:43:17.273Z,88.73
2018-11-05T18:45:47.355Z,86.17
2018-11-05T18:48:17.882Z,88.53
2018-11-05T18:50:47.812Z,101.63
2018-11-05T18:53:18.727Z,113.53
2018-11-05T18:55:49.020Z,120.53
2018-11-05T18:58:19.235Z,123.90
2018-11-05T19:00:49.634Z,120.27
2018-11-05T19:03:21.190Z,113.00
2018-11-05T19:05:52.519Z,105.73
2018-11-05T19:08:22.740Z,103.17
2018-11-05T19:10:53.507Z,103.53
2018-11-05T19:13:23.751Z,103.83
2018-11-05T19:15:53.905Z,102.73
2018-11-05T19:18:24.061Z,99.77
2018-11-05T19:20:54.402Z,94.10
2018-11-05T19:23:24.977Z,100.67
2018-11-05T19:25:55.375Z,100.23
2018-11-05T19:28:25.690Z,106.60
2018-11-05T19:30:56.149Z,109.07
2018-11-05T19:33:26.687Z,106.03
2018-11-05T19:35:56.856Z,98.07
2018-11-05T19:38:27.676Z,96.83
2018-11-05T19:40:58.066Z,103.30
2018-11-05T19:43:28.050Z,103.73
2018-11-05T19:45:58.639Z,102.10
2018-11-05T19:48:28.780Z,112.00
2018-11-05T19:50:59.809Z,110.17
2018-11-05T19:53:29.898Z,106.37
2018-11-05T19:56:00.172Z,102.00
2018-11-05T19:58:30.895Z,111.40
2018-11-05T20:01:01.241Z,107.10
2018-11-05T20:03:32.458Z,112.77
2018-11-05T20:06:02.629Z,118.27
2018-11-05T20:08:33.346Z,117.87
2018-11-05T20:11:03.596Z,120.43
2018-11-05T20:13:33.846Z,108.63
2018-11-05T20:16:04.151Z,122.80
2018-11-05T20:18:34.264Z,115.43
2018-11-05T20:21:04.833Z,115.50
2018-11-05T20:23:35.080Z,104.57
2018-11-05T20:26:05.811Z,104.97
2018-11-05T20:28:36.914Z,101.40
2018-11-05T20:31:07.634Z,109.33
2018-11-05T20:33:38.473Z,104.13
2018-11-05T20:36:08.839Z,116.33
2018-11-05T20:38:39.329Z,111.10
2018-11-05T20:41:09.303Z,113.13
2018-11-05T20:43:40.196Z,106.90
2018-11-05T20:46:10.428Z,102.90
2018-11-05T20:48:40.995Z,109.80
2018-11-05T20:51:10.864Z,107.17
2018-11-05T20:53:40.987Z,105.27
2018-11-05T20:56:11.351Z,101.00
2018-11-05T20:58:41.611Z,100.67
2018-11-05T21:01:11.933Z,103.00
2018-11-05T21:03:42.036Z,94.07
2018-11-05T21:06:12.281Z,91.90
2018-11-05T21:08:43.221Z,93.07
2018-11-05T21:11:13.890Z,92.93
2018-11-05T21:13:44.068Z,95.33
2018-11-05T21:16:14.647Z,101.00
2018-11-05T21:18:44.691Z,103.63
2018-11-05T21:21:15.164Z,112.63
2018-11-05T21:23:45.239Z,103.07
2018-11-05T21:26:15.983Z,100.23
2018-11-05T21:28:46.960Z,102.40
2018-11-05T21:31:17.504Z,102.77
2018-11-05T21:33:48.240Z,108.97
2018-11-05T21:36:18.734Z,105.83
2018-11-05T21:38:49.091Z,100.27
2018-11-05T21:41:19.114Z,100.57
2018-11-05T21:43:49.632Z,95.30
2018-11-05T21:46:20.801Z,94.83
2018-11-05T21:48:51.860Z,94.90
2018-11-05T21:51:22.462Z,100.53
2018-11-05T21:53:52.704Z,95.80
2018-11-05T21:56:23.092Z,97.00
2018-11-05T21:58:53.370Z,93.57
2018-11-05T22:01:26.275Z,92.33
2018-11-05T22:03:56.623Z,91.07
2018-11-05T22:06:26.849Z,89.53
2018-11-05T22:08:57.124Z,92.17
2018-11-05T22:11:27.207Z,87.90
2018-11-05T22:13:57.557Z,89.60
2018-11-05T22:16:27.666Z,85.23
2018-11-05T22:18:57.715Z,87.13
2018-11-05T22:21:29.443Z,89.27
2018-11-05T22:24:06.912Z,97.00
2018-11-05T22:26:37.109Z,94.80
2018-11-05T22:29:07.366Z,84.37
2018-11-05T22:31:39.638Z,89.30
2018-11-05T22:34:09.921Z,83.23
2018-11-05T22:36:40.657Z,86.10
2018-11-05T22:39:11.290Z,89.83
2018-11-05T22:41:41.638Z,88.40
2018-11-05T22:44:11.754Z,95.63
2018-11-05T22:46:41.951Z,90.20
2018-11-05T22:49:12.262Z,90.23
2018-11-05T22:51:43.343Z,97.90
2018-11-05T22:54:20.238Z,90.53
2018-11-05T22:56:50.546Z,87.53
2018-11-05T22:59:20.800Z,84.27
2018-11-05T23:01:53.524Z,90.13
2018-11-05T23:04:23.702Z,87.07
2018-11-05T23:06:54.046Z,88.53
2018-11-05T23:09:24.098Z,86.93
2018-11-05T23:11:54.222Z,85.07
2018-11-05T23:14:24.328Z,85.00
2018-11-05T23:16:54.465Z,83.50
2018-11-05T23:19:27.611Z,83.93
2018-11-05T23:21:57.988Z,90.60
2018-11-05T23:24:28.553Z,87.93
2018-11-05T23:26:58.723Z,90.57
2018-11-05T23:29:29.311Z,83.43
2018-11-05T23:31:59.748Z,87.00
2018-11-05T23:34:29.979Z,85.57
2018-11-05T23:37:00.278Z,90.77
2018-11-05T23:39:30.483Z,88.87
2018-11-05T23:42:01.048Z,83.20
2018-11-05T23:44:32.485Z,82.80
2018-11-05T23:47:03.484Z,83.73
2018-11-05T23:49:36.076Z,85.47
2018-11-05T23:52:06.199Z,83.87
2018-11-05T23:54:36.827Z,80.57
2018-11-05T23:57:06.964Z,83.13
2018-11-05T23:59:37.292Z,83.37
